createdAt,value
2022-08-31T00:00:43.593Z,27.51
2022-08-31T00:03:30.064Z,27.43
2022-08-31T00:06:01.297Z,27.31
2022-08-31T00:08:30.431Z,27.07
2022-08-31T00:10:59.306Z,27.13
2022-08-31T00:13:29.928Z,27.20
2022-08-31T00:15:58.882Z,27.23
2022-08-31T00:18:26.925Z,27.22
2022-08-31T00:20:55.230Z,27.17
2022-08-31T00:23:23.222Z,27.15
2022-08-31T00:25:51.552Z,27.09
2022-08-31T00:28:20.777Z,27.05
2022-08-31T00:31:09.879Z,26.96
2022-08-31T00:33:39.570Z,26.89
2022-08-31T00:36:12.678Z,26.72
2022-08-31T00:38:42.114Z,26.75
2022-08-31T00:41:11.906Z,26.71
2022-08-31T00:43:57.840Z,26.73
2022-08-31T00:46:31.289Z,26.58
2022-08-31T00:49:04.553Z,26.61
2022-08-31T00:51:42.392Z,26.61
2022-08-31T00:54:13.084Z,26.54
2022-08-31T00:56:44.845Z,26.48
2022-08-31T00:59:17.709Z,26.36
2022-08-31T01:01:47.505Z,26.36
2022-08-31T01:04:16.861Z,26.37
2022-08-31T01:06:47.337Z,26.37
2022-08-31T01:09:16.463Z,26.31
2022-08-31T01:11:45.758Z,26.24
2022-08-31T01:14:14.723Z,26.16
2022-08-31T01:16:51.300Z,26.25
2022-08-31T01:19:40.809Z,26.22
2022-08-31T01:22:14.764Z,26.14
2022-08-31T01:24:47.334Z,26.08
2022-08-31T01:27:21.904Z,26.03
2022-08-31T01:29:51.068Z,25.97
2022-08-31T01:32:19.567Z,25.93
2022-08-31T01:34:48.032Z,25.99
2022-08-31T01:37:17.585Z,26.02
2022-08-31T01:39:45.865Z,25.96
2022-08-31T01:42:14.181Z,25.96
2022-08-31T01:44:42.886Z,25.90
2022-08-31T01:47:11.596Z,25.92
2022-08-31T01:49:40.240Z,25.92
2022-08-31T01:52:08.201Z,25.85
2022-08-31T01:54:36.418Z,25.88
2022-08-31T01:57:04.727Z,25.87
2022-08-31T01:59:53.220Z,25.83
2022-08-31T02:02:40.393Z,25.81
2022-08-31T02:05:10.825Z,25.76
2022-08-31T02:07:39.201Z,25.72
2022-08-31T02:10:08.324Z,25.74
2022-08-31T02:12:36.780Z,25.65
2022-08-31T02:15:09.506Z,25.74
2022-08-31T02:17:38.450Z,25.72
2022-08-31T02:20:10.881Z,25.77
2022-08-31T02:22:39.230Z,25.76
2022-08-31T02:25:08.646Z,25.85
2022-08-31T02:27:38.270Z,25.85
2022-08-31T02:30:17.164Z,25.84
2022-08-31T02:32:45.292Z,25.77
2022-08-31T02:35:14.404Z,25.86
2022-08-31T02:37:43.119Z,25.82
2022-08-31T02:40:13.367Z,25.90
2022-08-31T02:42:52.924Z,25.83
2022-08-31T02:45:25.391Z,25.86
2022-08-31T02:47:57.508Z,25.81
2022-08-31T02:50:33.697Z,25.89
2022-08-31T02:53:02.227Z,25.90
2022-08-31T02:55:36.063Z,25.99
2022-08-31T02:58:06.199Z,25.84
2022-08-31T03:00:37.982Z,25.95
2022-08-31T03:03:07.031Z,25.88
2022-08-31T03:05:35.206Z,25.89
2022-08-31T03:08:03.801Z,25.90
2022-08-31T03:10:31.805Z,25.83
2022-08-31T03:12:59.873Z,25.87
2022-08-31T03:15:29.853Z,25.81
2022-08-31T03:17:58.248Z,25.84
2022-08-31T03:20:27.874Z,25.84
2022-08-31T03:22:56.232Z,25.83
2022-08-31T03:25:27.499Z,25.81
2022-08-31T03:27:55.513Z,25.78
2022-08-31T03:30:24.359Z,25.69
2022-08-31T03:33:15.831Z,25.74
2022-08-31T03:35:46.758Z,25.68
2022-08-31T03:38:16.837Z,25.67
2022-08-31T03:40:45.254Z,25.77
2022-08-31T03:43:14.427Z,25.75
2022-08-31T03:45:44.133Z,25.63
2022-08-31T03:48:13.336Z,25.70
2022-08-31T03:50:44.450Z,25.58
2022-08-31T03:53:22.618Z,25.67
2022-08-31T03:56:01.637Z,25.64
2022-08-31T03:58:32.757Z,25.70
2022-08-31T04:01:02.739Z,25.64
2022-08-31T04:03:49.341Z,25.52
2022-08-31T04:06:36.449Z,25.52
2022-08-31T04:09:27.663Z,25.53
2022-08-31T04:12:34.463Z,25.55
2022-08-31T04:15:21.040Z,25.52
2022-08-31T04:18:25.015Z,25.44
2022-08-31T04:20:54.131Z,25.42
2022-08-31T04:23:22.219Z,25.45
2022-08-31T04:25:52.467Z,25.42
2022-08-31T04:28:20.439Z,25.34
2022-08-31T04:30:50.419Z,25.40
2022-08-31T04:33:18.567Z,25.32
2022-08-31T04:35:47.296Z,25.40
2022-08-31T04:38:16.912Z,25.38
2022-08-31T04:40:47.173Z,25.32
2022-08-31T04:43:15.724Z,25.35
2022-08-31T04:45:46.250Z,25.28
2022-08-31T04:48:15.090Z,25.32
2022-08-31T04:50:44.035Z,25.26
2022-08-31T04:53:12.483Z,25.37
2022-08-31T04:55:42.174Z,25.40
2022-08-31T04:58:14.345Z,25.36
2022-08-31T05:00:44.149Z,25.30
2022-08-31T05:03:23.533Z,25.30
2022-08-31T05:05:54.749Z,25.06
2022-08-31T05:08:23.020Z,25.24
2022-08-31T05:10:53.075Z,25.27
2022-08-31T05:13:21.322Z,25.29
2022-08-31T05:15:50.727Z,25.31
2022-08-31T05:18:25.747Z,25.28
2022-08-31T05:20:58.092Z,25.31
2022-08-31T05:23:26.388Z,25.39
2022-08-31T05:25:54.772Z,25.38
2022-08-31T05:28:23.793Z,25.34
2022-08-31T05:30:52.278Z,25.31
2022-08-31T05:33:40.048Z,25.21
2022-08-31T05:36:08.900Z,25.20
2022-08-31T05:38:41.619Z,25.11
2022-08-31T05:41:11.375Z,25.02
2022-08-31T05:43:41.147Z,24.95
2022-08-31T05:46:13.330Z,24.96
2022-08-31T05:48:42.997Z,24.92
2022-08-31T05:51:19.178Z,24.90
2022-08-31T05:53:48.647Z,24.88
2022-08-31T05:56:26.496Z,24.86
2022-08-31T05:58:57.706Z,24.82
2022-08-31T06:01:31.884Z,24.80
2022-08-31T06:04:16.128Z,24.81
2022-08-31T06:06:46.208Z,24.81
2022-08-31T06:09:16.699Z,24.81
2022-08-31T06:11:48.314Z,24.90
2022-08-31T06:14:18.688Z,24.92
2022-08-31T06:16:48.731Z,24.94
2022-08-31T06:19:20.895Z,24.91
2022-08-31T06:21:51.558Z,25.02
2022-08-31T06:24:27.275Z,25.12
2022-08-31T06:27:15.846Z,25.03
2022-08-31T06:29:44.921Z,25.18
2022-08-31T06:32:15.665Z,25.17
2022-08-31T06:34:56.533Z,25.18
2022-08-31T06:37:43.572Z,25.20
2022-08-31T06:40:52.571Z,25.02
2022-08-31T06:43:44.040Z,25.17
2022-08-31T06:46:41.600Z,25.24
2022-08-31T06:49:20.469Z,25.31
2022-08-31T06:51:48.747Z,25.32
2022-08-31T06:54:34.974Z,25.40
2022-08-31T06:57:29.147Z,25.30
2022-08-31T07:00:34.947Z,25.36
2022-08-31T07:03:24.274Z,25.39
2022-08-31T07:05:54.534Z,25.43
2022-08-31T07:08:23.688Z,25.43
2022-08-31T07:10:53.886Z,25.46
2022-08-31T07:13:22.560Z,25.51
2022-08-31T07:15:50.417Z,25.50
2022-08-31T07:18:18.712Z,25.54
2022-08-31T07:20:48.345Z,25.56
2022-08-31T07:23:17.755Z,25.56
2022-08-31T07:26:03.230Z,25.51
2022-08-31T07:28:34.050Z,25.57
2022-08-31T07:31:05.473Z,25.56
2022-08-31T07:33:38.262Z,25.49
2022-08-31T07:36:11.031Z,25.66
2022-08-31T07:39:32.895Z,25.64
2022-08-31T07:42:11.391Z,25.67
2022-08-31T07:44:43.019Z,25.71
2022-08-31T07:47:23.167Z,25.75
2022-08-31T07:49:54.684Z,25.80
2022-08-31T07:52:54.059Z,25.84
2022-08-31T07:55:42.062Z,25.84
2022-08-31T07:58:28.225Z,25.91
2022-08-31T08:01:03.174Z,26.04
2022-08-31T08:03:31.468Z,26.05
2022-08-31T08:06:20.434Z,25.97
2022-08-31T08:09:23.924Z,26.07
2022-08-31T08:12:13.342Z,26.10
2022-08-31T08:15:00.784Z,26.06
2022-08-31T08:17:47.281Z,26.22
2022-08-31T08:20:23.767Z,26.27
2022-08-31T08:23:18.401Z,26.30
2022-08-31T08:26:30.576Z,26.24
2022-08-31T08:29:06.472Z,26.22
2022-08-31T08:31:38.820Z,26.28
2022-08-31T08:34:07.010Z,26.23
2022-08-31T08:36:40.526Z,26.19
2022-08-31T08:39:13.037Z,26.16
2022-08-31T08:41:45.720Z,26.09
2022-08-31T08:44:18.543Z,25.96
2022-08-31T08:47:02.758Z,25.93
2022-08-31T08:49:50.860Z,25.84
2022-08-31T08:52:41.505Z,25.77
2022-08-31T08:55:17.076Z,25.67
2022-08-31T08:57:49.995Z,25.44
2022-08-31T09:00:24.958Z,25.19
2022-08-31T09:03:24.096Z,24.90
2022-08-31T09:07:09.578Z,24.45
2022-08-31T09:09:49.485Z,24.32
2022-08-31T09:12:30.854Z,24.24
2022-08-31T09:15:33.279Z,24.10
2022-08-31T09:18:07.123Z,24.04
2022-08-31T09:20:36.635Z,24.01
2022-08-31T09:23:08.017Z,23.93
2022-08-31T09:25:53.953Z,23.94
2022-08-31T09:28:44.952Z,23.82
2022-08-31T09:31:39.900Z,23.84
2022-08-31T09:34:36.491Z,23.78
2022-08-31T09:37:25.145Z,23.75
2022-08-31T09:39:55.062Z,23.68
2022-08-31T09:42:31.369Z,23.67
2022-08-31T09:45:30.278Z,23.71
2022-08-31T09:48:01.973Z,23.67
2022-08-31T09:50:42.150Z,23.73
2022-08-31T09:53:41.551Z,23.79
2022-08-31T09:56:21.818Z,23.82
2022-08-31T09:59:01.764Z,23.90
2022-08-31T10:01:45.676Z,23.99
2022-08-31T10:04:43.920Z,24.04
2022-08-31T10:08:04.693Z,24.06
2022-08-31T10:10:39.606Z,24.10
2022-08-31T10:13:34.373Z,24.11
2022-08-31T10:16:34.916Z,24.18
2022-08-31T10:19:13.551Z,24.13
2022-08-31T10:21:54.801Z,24.19
2022-08-31T10:24:34.645Z,24.19
2022-08-31T10:27:14.252Z,24.19
2022-08-31T10:29:59.938Z,24.20
2022-08-31T10:32:43.564Z,24.18
2022-08-31T10:35:48.826Z,24.15
2022-08-31T10:38:36.261Z,24.13
2022-08-31T10:41:13.322Z,24.15
2022-08-31T10:44:02.682Z,24.18
2022-08-31T10:46:34.747Z,24.21
2022-08-31T10:49:06.796Z,24.31
2022-08-31T10:52:18.621Z,24.40
2022-08-31T10:55:06.823Z,24.48
2022-08-31T10:57:44.121Z,24.61
2022-08-31T11:00:42.194Z,24.75
2022-08-31T11:03:44.009Z,24.77
2022-08-31T11:06:35.982Z,24.80
2022-08-31T11:09:22.938Z,24.90
2022-08-31T11:12:20.356Z,25.02
2022-08-31T11:14:58.591Z,25.09
2022-08-31T11:18:06.026Z,25.16
2022-08-31T11:21:11.345Z,25.22
2022-08-31T11:24:02.959Z,25.27
2022-08-31T11:26:50.856Z,25.36
2022-08-31T11:29:49.193Z,25.43
2022-08-31T11:32:37.773Z,25.54
2022-08-31T11:35:10.489Z,25.55
2022-08-31T11:37:54.255Z,25.56
2022-08-31T11:40:42.351Z,25.55
2022-08-31T11:43:36.872Z,25.53
2022-08-31T11:46:26.395Z,25.59
2022-08-31T11:48:56.216Z,25.59
2022-08-31T11:51:37.323Z,25.57
2022-08-31T11:54:36.402Z,25.61
2022-08-31T11:57:07.612Z,25.59
2022-08-31T11:59:43.668Z,25.59
2022-08-31T12:02:21.445Z,25.60
2022-08-31T12:04:52.377Z,25.54
2022-08-31T12:07:44.997Z,25.56
2022-08-31T12:10:16.922Z,25.55
2022-08-31T12:13:31.347Z,25.54
2022-08-31T12:16:05.146Z,25.54
2022-08-31T12:20:01.297Z,25.48
2022-08-31T12:23:30.809Z,25.52
2022-08-31T12:26:54.559Z,25.62
2022-08-31T12:29:37.935Z,25.72
2022-08-31T12:32:36.503Z,25.84
2022-08-31T12:35:19.971Z,25.91
2022-08-31T12:38:04.918Z,26.00
2022-08-31T12:40:52.349Z,26.06
2022-08-31T12:43:28.432Z,26.14
2022-08-31T12:46:08.134Z,26.20
2022-08-31T12:49:18.265Z,26.20
2022-08-31T12:52:38.226Z,26.21
2022-08-31T12:55:13.684Z,26.27
2022-08-31T12:58:11.950Z,26.39
2022-08-31T13:00:44.066Z,26.45
2022-08-31T13:03:31.587Z,26.61
2022-08-31T13:06:13.908Z,26.68
2022-08-31T13:08:50.641Z,26.69
2022-08-31T13:11:40.231Z,26.74
2022-08-31T13:14:24.717Z,26.75
2022-08-31T13:17:18.262Z,26.77
2022-08-31T13:19:58.118Z,26.78
2022-08-31T13:22:45.592Z,26.71
2022-08-31T13:25:35.946Z,26.83
2022-08-31T13:28:13.678Z,26.82
2022-08-31T13:30:55.323Z,26.81
2022-08-31T13:33:40.343Z,26.86
2022-08-31T13:36:32.501Z,26.94
2022-08-31T13:39:25.596Z,27.06
2022-08-31T13:42:08.354Z,27.12
2022-08-31T13:44:45.148Z,27.22
2022-08-31T13:47:24.713Z,27.35
2022-08-31T13:50:24.059Z,27.37
2022-08-31T13:53:25.819Z,27.44
2022-08-31T13:55:53.398Z,27.37
2022-08-31T13:58:31.785Z,27.57
2022-08-31T14:01:24.757Z,27.59
2022-08-31T14:03:59.340Z,27.53
2022-08-31T14:06:39.868Z,27.44
2022-08-31T14:09:16.469Z,27.26
2022-08-31T14:12:03.052Z,27.35
2022-08-31T14:14:45.027Z,27.33
2022-08-31T14:17:42.596Z,27.25
2022-08-31T14:20:39.862Z,27.18
2022-08-31T14:23:34.359Z,27.09
2022-08-31T14:26:15.659Z,27.05
2022-08-31T14:28:53.688Z,26.98
2022-08-31T14:31:57.992Z,26.99
2022-08-31T14:34:35.065Z,26.92
2022-08-31T14:37:11.507Z,27.11
2022-08-31T14:39:44.128Z,27.09
2022-08-31T14:42:35.123Z,27.23
2022-08-31T14:45:18.989Z,27.27
2022-08-31T14:47:52.713Z,27.31
2022-08-31T14:50:25.499Z,27.46
2022-08-31T14:52:55.539Z,27.59
2022-08-31T14:55:27.856Z,27.58
2022-08-31T14:58:10.171Z,27.76
2022-08-31T15:00:51.074Z,27.90
2022-08-31T15:03:24.661Z,27.92
2022-08-31T15:05:52.982Z,27.98
2022-08-31T15:08:30.222Z,28.02
2022-08-31T15:11:10.948Z,28.01
2022-08-31T15:13:39.807Z,27.98
2022-08-31T15:16:13.418Z,28.01
2022-08-31T15:18:44.726Z,28.04
2022-08-31T15:21:13.384Z,27.85
2022-08-31T15:23:42.222Z,27.99
2022-08-31T15:26:15.116Z,28.09
2022-08-31T15:28:43.391Z,28.10
2022-08-31T15:31:27.393Z,28.14
2022-08-31T15:34:00.694Z,28.09
2022-08-31T15:36:28.877Z,28.09
2022-08-31T15:38:59.009Z,28.08
2022-08-31T15:41:29.867Z,28.06
2022-08-31T15:43:57.972Z,27.97
2022-08-31T15:46:44.975Z,27.83
2022-08-31T15:49:14.828Z,27.87
2022-08-31T15:51:49.292Z,27.82
2022-08-31T15:54:22.968Z,27.74
2022-08-31T15:56:52.580Z,27.79
2022-08-31T15:59:23.309Z,27.72
2022-08-31T16:01:53.831Z,27.68
2022-08-31T16:04:25.080Z,27.58
2022-08-31T16:06:55.196Z,27.39
2022-08-31T16:09:25.041Z,27.49
2022-08-31T16:11:53.589Z,27.51
2022-08-31T16:14:23.371Z,27.51
2022-08-31T16:16:52.108Z,27.50
2022-08-31T16:19:34.535Z,27.47
2022-08-31T16:22:08.611Z,27.53
2022-08-31T16:24:38.560Z,27.52
2022-08-31T16:27:12.382Z,27.57
2022-08-31T16:29:46.100Z,27.54
2022-08-31T16:32:14.830Z,27.56
2022-08-31T16:34:43.392Z,27.56
2022-08-31T16:37:12.360Z,27.54
2022-08-31T16:39:47.100Z,27.56
2022-08-31T16:42:16.280Z,27.55
2022-08-31T16:44:47.942Z,27.52
2022-08-31T16:47:19.337Z,27.51
2022-08-31T16:49:48.341Z,27.48
2022-08-31T16:52:26.843Z,27.50
2022-08-31T16:54:59.490Z,27.44
2022-08-31T16:57:32.854Z,27.42
2022-08-31T17:00:03.180Z,27.38
2022-08-31T17:02:33.605Z,27.35
2022-08-31T17:05:05.495Z,27.23
2022-08-31T17:07:34.017Z,27.19
2022-08-31T17:10:06.523Z,27.18
2022-08-31T17:12:37.219Z,27.04
2022-08-31T17:15:09.624Z,27.06
2022-08-31T17:17:38.527Z,27.04
2022-08-31T17:20:08.512Z,26.87
2022-08-31T17:22:37.744Z,26.92
2022-08-31T17:25:08.452Z,26.90
2022-08-31T17:27:36.672Z,26.84
2022-08-31T17:30:08.150Z,26.85
2022-08-31T17:32:45.257Z,26.80
2022-08-31T17:35:19.301Z,26.80
2022-08-31T17:37:48.292Z,26.73
2022-08-31T17:40:16.954Z,26.70
2022-08-31T17:42:50.109Z,26.70
2022-08-31T17:45:20.100Z,26.68
2022-08-31T17:47:47.959Z,26.66
2022-08-31T17:50:20.203Z,26.66
2022-08-31T17:52:48.355Z,26.60
2022-08-31T17:55:17.712Z,26.60
2022-08-31T17:57:46.378Z,26.52
2022-08-31T18:00:16.733Z,26.56
2022-08-31T18:02:50.083Z,26.56
2022-08-31T18:05:22.904Z,26.52
2022-08-31T18:07:51.527Z,26.51
2022-08-31T18:10:21.260Z,26.49
2022-08-31T18:12:49.929Z,26.47
2022-08-31T18:15:19.237Z,26.44
2022-08-31T18:17:48.534Z,26.45
2022-08-31T18:20:17.922Z,26.40
2022-08-31T18:22:51.515Z,26.42
2022-08-31T18:25:21.336Z,26.42
2022-08-31T18:27:49.676Z,26.39
2022-08-31T18:30:18.523Z,26.39
2022-08-31T18:32:49.511Z,26.35
2022-08-31T18:35:17.959Z,26.39
2022-08-31T18:37:47.685Z,26.38
2022-08-31T18:40:36.768Z,26.35
2022-08-31T18:43:24.524Z,26.30
2022-08-31T18:45:53.966Z,26.29
2022-08-31T18:48:27.949Z,26.28
2022-08-31T18:50:59.377Z,26.28
2022-08-31T18:53:30.493Z,26.24
2022-08-31T18:56:11.810Z,26.25
2022-08-31T18:58:41.758Z,26.18
2022-08-31T19:01:13.898Z,26.16
2022-08-31T19:03:42.955Z,26.15
2022-08-31T19:06:26.087Z,26.16
2022-08-31T19:08:55.605Z,26.07
2022-08-31T19:11:27.038Z,25.98
2022-08-31T19:13:56.009Z,25.88
2022-08-31T19:16:29.326Z,25.81
2022-08-31T19:18:58.645Z,25.74
2022-08-31T19:21:33.651Z,25.70
2022-08-31T19:24:07.407Z,25.61
2022-08-31T19:26:47.164Z,25.53
2022-08-31T19:29:22.936Z,25.41
2022-08-31T19:31:51.846Z,25.33
2022-08-31T19:34:25.827Z,25.29
2022-08-31T19:36:56.471Z,25.20
2022-08-31T19:39:31.800Z,25.10
2022-08-31T19:42:08.867Z,25.09
2022-08-31T19:44:54.999Z,24.78
2022-08-31T19:47:26.915Z,24.80
2022-08-31T19:49:55.276Z,24.83
2022-08-31T19:52:25.813Z,24.80
2022-08-31T19:54:54.679Z,24.74
2022-08-31T19:57:24.349Z,24.69
2022-08-31T19:59:53.496Z,24.67
2022-08-31T20:02:21.790Z,24.69
2022-08-31T20:04:50.442Z,24.68
2022-08-31T20:07:20.509Z,24.60
2022-08-31T20:09:48.650Z,24.57
2022-08-31T20:12:18.949Z,24.50
2022-08-31T20:14:48.420Z,24.43
2022-08-31T20:17:16.708Z,24.37
2022-08-31T20:19:46.889Z,24.39
2022-08-31T20:22:16.039Z,24.11
2022-08-31T20:24:45.374Z,24.20
2022-08-31T20:27:18.792Z,24.23
2022-08-31T20:29:48.248Z,24.24
2022-08-31T20:32:16.937Z,24.18
2022-08-31T20:34:45.354Z,24.08
2022-08-31T20:37:13.911Z,24.15
2022-08-31T20:39:42.278Z,24.11
2022-08-31T20:42:10.871Z,24.04
2022-08-31T20:44:39.226Z,24.05
2022-08-31T20:47:29.830Z,24.04
2022-08-31T20:50:02.698Z,23.99
2022-08-31T20:52:35.517Z,23.99
2022-08-31T20:55:08.135Z,24.01
2022-08-31T20:57:43.925Z,24.01
2022-08-31T21:00:15.938Z,24.01
2022-08-31T21:02:47.534Z,23.99
2022-08-31T21:05:37.503Z,23.88
2022-08-31T21:08:06.055Z,23.90
2022-08-31T21:10:37.767Z,23.75
2022-08-31T21:13:12.509Z,23.85
2022-08-31T21:15:46.449Z,23.79
2022-08-31T21:18:17.954Z,23.81
2022-08-31T21:20:46.842Z,23.51
2022-08-31T21:23:16.307Z,23.59
2022-08-31T21:25:46.753Z,23.65
2022-08-31T21:28:18.074Z,23.63
2022-08-31T21:30:50.572Z,23.58
2022-08-31T21:33:22.473Z,23.55
2022-08-31T21:36:00.798Z,23.45
2022-08-31T21:38:29.460Z,23.49
2022-08-31T21:40:57.817Z,23.50
2022-08-31T21:43:27.289Z,23.50
2022-08-31T21:46:04.587Z,23.50
2022-08-31T21:48:35.154Z,23.49
2022-08-31T21:51:21.226Z,23.47
2022-08-31T21:54:01.572Z,23.42
2022-08-31T21:56:37.436Z,23.40
2022-08-31T21:59:07.963Z,23.32
2022-08-31T22:01:37.925Z,23.30
2022-08-31T22:04:10.243Z,23.25
2022-08-31T22:06:42.841Z,23.24
2022-08-31T22:09:15.799Z,23.23
2022-08-31T22:11:50.812Z,23.21
2022-08-31T22:14:27.067Z,23.16
2022-08-31T22:16:58.893Z,23.19
2022-08-31T22:19:28.482Z,23.17
2022-08-31T22:21:59.380Z,23.21
2022-08-31T22:24:32.569Z,23.20
2022-08-31T22:27:08.045Z,23.19
2022-08-31T22:29:40.937Z,23.19
2022-08-31T22:32:15.111Z,23.15
2022-08-31T22:34:44.054Z,23.14
2022-08-31T22:37:14.124Z,23.13
2022-08-31T22:39:43.915Z,23.04
2022-08-31T22:42:13.473Z,23.12
2022-08-31T22:44:43.990Z,23.12
2022-08-31T22:47:12.393Z,23.08
2022-08-31T22:49:40.778Z,23.02
2022-08-31T22:52:12.986Z,22.96
2022-08-31T22:54:45.139Z,22.90
2022-08-31T22:57:14.294Z,22.83
2022-08-31T22:59:42.553Z,22.70
2022-08-31T23:02:10.799Z,22.76
2022-08-31T23:04:43.827Z,22.70
2022-08-31T23:07:16.801Z,22.67
2022-08-31T23:09:46.255Z,22.56
2022-08-31T23:12:14.264Z,22.62
2022-08-31T23:14:44.321Z,22.64
2022-08-31T23:17:14.462Z,22.63
2022-08-31T23:19:43.978Z,22.64
2022-08-31T23:22:15.146Z,22.64
2022-08-31T23:24:48.646Z,22.67
2022-08-31T23:27:21.780Z,22.65
2022-08-31T23:29:55.934Z,22.63
2022-08-31T23:32:29.147Z,22.60
2022-08-31T23:34:58.572Z,22.51
2022-08-31T23:37:27.897Z,22.50
2022-08-31T23:39:58.284Z,22.54
2022-08-31T23:42:29.690Z,22.48
2022-08-31T23:44:59.025Z,22.51
2022-08-31T23:47:30.974Z,22.48
2022-08-31T23:50:05.031Z,22.46
2022-08-31T23:52:37.589Z,22.47
2022-08-31T23:55:06.991Z,22.50
2022-08-31T23:57:38.160Z,22.54
